Аэропорт: Ужгород. Ужгород

ICAO: UKLU

METAR:
2021-01-19 11:30:00
UKLU 191130Z 13004MPS 4000 -SN BR OVC015 M05/M08 Q1021 R10/491235 NOSIG
METAR:
2021-01-19 08:05:00
TAF UKLU 190805Z 1909/1918 13003MPS 2100 -SN BR OVC010 TXM03/1913Z TNM05/1909Z TEMPO 1909/1915 1300 SHSN BR BKN005 BKN015CB